sensor_id;sensor_type;location;lat;lon;timestamp;P1;durP1;ratioP1;P2;durP2;ratioP2
35126;SDS011;21300;52.006;5.798;2022-12-29T00:01:23;6.93;;;4.60;;
35126;SDS011;21300;52.006;5.798;2022-12-29T00:03:49;8.32;;;4.47;;
35126;SDS011;21300;52.006;5.798;2022-12-29T00:06:14;6.60;;;4.45;;
35126;SDS011;21300;52.006;5.798;2022-12-29T00:08:40;8.32;;;4.47;;
35126;SDS011;21300;52.006;5.798;2022-12-29T00:11:06;6.43;;;4.75;;
35126;SDS011;21300;52.006;5.798;2022-12-29T00:13:37;5.80;;;3.03;;
35126;SDS011;21300;52.006;5.798;2022-12-29T00:16:21;8.17;;;4.03;;
35126;SDS011;21300;52.006;5.798;2022-12-29T00:18:47;5.95;;;4.43;;
35126;SDS011;21300;52.006;5.798;2022-12-29T00:21:13;6.82;;;4.43;;
35126;SDS011;21300;52.006;5.798;2022-12-29T00:26:42;5.38;;;3.95;;
35126;SDS011;21300;52.006;5.798;2022-12-29T00:29:27;5.10;;;3.55;;
35126;SDS011;21300;52.006;5.798;2022-12-29T00:32:11;6.60;;;4.18;;
35126;SDS011;21300;52.006;5.798;2022-12-29T00:34:55;7.10;;;4.20;;
35126;SDS011;21300;52.006;5.798;2022-12-29T00:37:34;6.05;;;4.07;;
35126;SDS011;21300;52.006;5.798;2022-12-29T00:40:20;6.78;;;4.20;;
35126;SDS011;21300;52.006;5.798;2022-12-29T00:43:05;7.10;;;3.70;;
35126;SDS011;21300;52.006;5.798;2022-12-29T00:45:49;5.55;;;4.60;;
35126;SDS011;21300;52.006;5.798;2022-12-29T00:48:14;5.53;;;3.88;;
35126;SDS011;21300;52.006;5.798;2022-12-29T00:50:40;8.60;;;4.13;;
35126;SDS011;21300;52.006;5.798;2022-12-29T00:53:06;8.85;;;4.57;;
35126;SDS011;21300;52.006;5.798;2022-12-29T00:55:31;4.82;;;3.17;;
35126;SDS011;21300;52.006;5.798;2022-12-29T00:58:00;4.85;;;3.75;;
35126;SDS011;21300;52.006;5.798;2022-12-29T01:00:26;5.40;;;3.47;;
35126;SDS011;21300;52.006;5.798;2022-12-29T01:02:51;4.93;;;3.35;;
35126;SDS011;21300;52.006;5.798;2022-12-29T01:05:17;6.43;;;4.00;;
35126;SDS011;21300;52.006;5.798;2022-12-29T01:07:42;8.52;;;4.05;;
35126;SDS011;21300;52.006;5.798;2022-12-29T01:10:08;5.07;;;3.10;;
35126;SDS011;21300;52.006;5.798;2022-12-29T01:12:36;4.65;;;3.10;;
35126;SDS011;21300;52.006;5.798;2022-12-29T01:15:06;5.07;;;2.70;;
35126;SDS011;21300;52.006;5.798;2022-12-29T01:17:34;4.30;;;2.60;;
35126;SDS011;21300;52.006;5.798;2022-12-29T01:19:59;6.03;;;2.90;;
35126;SDS011;21300;52.006;5.798;2022-12-29T01:22:25;4.63;;;2.45;;
35126;SDS011;21300;52.006;5.798;2022-12-29T01:24:50;3.05;;;2.20;;
35126;SDS011;21300;52.006;5.798;2022-12-29T01:27:16;3.80;;;1.90;;
35126;SDS011;21300;52.006;5.798;2022-12-29T01:29:42;3.45;;;1.98;;
35126;SDS011;21300;52.006;5.798;2022-12-29T01:32:07;3.45;;;1.77;;
35126;SDS011;21300;52.006;5.798;2022-12-29T01:34:33;2.80;;;1.70;;
35126;SDS011;21300;52.006;5.798;2022-12-29T01:36:58;2.17;;;1.55;;
35126;SDS011;21300;52.006;5.798;2022-12-29T01:39:24;4.40;;;1.73;;
35126;SDS011;21300;52.006;5.798;2022-12-29T01:41:49;5.13;;;1.60;;
35126;SDS011;21300;52.006;5.798;2022-12-29T01:47:28;3.55;;;1.70;;
35126;SDS011;21300;52.006;5.798;2022-12-29T01:50:08;2.63;;;1.80;;
35126;SDS011;21300;52.006;5.798;2022-12-29T01:52:38;2.33;;;1.65;;
35126;SDS011;21300;52.006;5.798;2022-12-29T01:55:08;4.82;;;1.50;;
35126;SDS011;21300;52.006;5.798;2022-12-29T01:57:37;3.25;;;1.80;;
35126;SDS011;21300;52.006;5.798;2022-12-29T02:00:06;4.45;;;2.10;;
35126;SDS011;21300;52.006;5.798;2022-12-29T02:02:34;2.08;;;1.63;;
35126;SDS011;21300;52.006;5.798;2022-12-29T02:05:02;5.30;;;1.95;;
35126;SDS011;21300;52.006;5.798;2022-12-29T02:10:02;4.50;;;1.95;;
35126;SDS011;21300;52.006;5.798;2022-12-29T02:12:28;3.70;;;1.85;;
35126;SDS011;21300;52.006;5.798;2022-12-29T02:14:55;4.43;;;2.25;;
35126;SDS011;21300;52.006;5.798;2022-12-29T02:17:47;2.75;;;1.90;;
35126;SDS011;21300;52.006;5.798;2022-12-29T02:20:31;4.78;;;2.20;;
35126;SDS011;21300;52.006;5.798;2022-12-29T02:29:06;3.53;;;1.95;;
35126;SDS011;21300;52.006;5.798;2022-12-29T02:32:01;3.92;;;1.77;;
35126;SDS011;21300;52.006;5.798;2022-12-29T02:34:44;2.42;;;1.13;;
35126;SDS011;21300;52.006;5.798;2022-12-29T02:37:21;5.85;;;1.20;;
35126;SDS011;21300;52.006;5.798;2022-12-29T02:42:43;2.83;;;0.93;;
35126;SDS011;21300;52.006;5.798;2022-12-29T02:45:20;4.47;;;1.40;;
35126;SDS011;21300;52.006;5.798;2022-12-29T02:50:43;4.50;;;1.70;;
35126;SDS011;21300;52.006;5.798;2022-12-29T02:53:22;6.18;;;1.45;;
35126;SDS011;21300;52.006;5.798;2022-12-29T02:56:08;3.60;;;1.50;;
35126;SDS011;21300;52.006;5.798;2022-12-29T02:58:33;4.47;;;1.52;;
35126;SDS011;21300;52.006;5.798;2022-12-29T03:03:48;3.72;;;1.50;;
35126;SDS011;21300;52.006;5.798;2022-12-29T03:12:42;8.70;;;2.03;;
35126;SDS011;21300;52.006;5.798;2022-12-29T03:15:43;3.17;;;1.15;;
35126;SDS011;21300;52.006;5.798;2022-12-29T03:21:11;3.75;;;0.90;;
35126;SDS011;21300;52.006;5.798;2022-12-29T03:24:12;2.25;;;0.73;;
35126;SDS011;21300;52.006;5.798;2022-12-29T03:26:38;3.75;;;1.10;;
35126;SDS011;21300;52.006;5.798;2022-12-29T03:29:06;3.67;;;0.77;;
35126;SDS011;21300;52.006;5.798;2022-12-29T03:31:34;5.13;;;1.35;;
35126;SDS011;21300;52.006;5.798;2022-12-29T03:34:01;6.90;;;1.20;;
35126;SDS011;21300;52.006;5.798;2022-12-29T03:36:30;3.10;;;1.38;;
35126;SDS011;21300;52.006;5.798;2022-12-29T03:39:06;5.68;;;1.95;;
35126;SDS011;21300;52.006;5.798;2022-12-29T03:41:36;3.40;;;1.50;;
35126;SDS011;21300;52.006;5.798;2022-12-29T03:44:05;4.75;;;1.73;;
35126;SDS011;21300;52.006;5.798;2022-12-29T03:46:31;6.38;;;1.27;;
35126;SDS011;21300;52.006;5.798;2022-12-29T03:48:57;7.43;;;1.60;;
35126;SDS011;21300;52.006;5.798;2022-12-29T03:51:23;6.45;;;1.50;;
35126;SDS011;21300;52.006;5.798;2022-12-29T03:53:48;4.32;;;1.23;;
35126;SDS011;21300;52.006;5.798;2022-12-29T03:56:14;3.20;;;1.38;;
35126;SDS011;21300;52.006;5.798;2022-12-29T03:58:39;4.57;;;1.23;;
35126;SDS011;21300;52.006;5.798;2022-12-29T04:01:05;9.00;;;1.45;;
35126;SDS011;21300;52.006;5.798;2022-12-29T04:03:31;3.97;;;1.20;;
35126;SDS011;21300;52.006;5.798;2022-12-29T04:05:56;5.80;;;1.17;;
35126;SDS011;21300;52.006;5.798;2022-12-29T04:08:22;8.02;;;1.50;;
35126;SDS011;21300;52.006;5.798;2022-12-29T04:10:48;4.00;;;1.50;;
35126;SDS011;21300;52.006;5.798;2022-12-29T04:13:14;6.28;;;1.30;;
35126;SDS011;21300;52.006;5.798;2022-12-29T04:15:40;4.90;;;1.50;;
35126;SDS011;21300;52.006;5.798;2022-12-29T04:18:07;5.05;;;1.65;;
35126;SDS011;21300;52.006;5.798;2022-12-29T04:20:32;8.07;;;1.83;;
35126;SDS011;21300;52.006;5.798;2022-12-29T04:23:17;3.45;;;2.03;;
35126;SDS011;21300;52.006;5.798;2022-12-29T04:25:44;7.60;;;1.25;;
35126;SDS011;21300;52.006;5.798;2022-12-29T04:28:29;5.68;;;1.45;;
35126;SDS011;21300;52.006;5.798;2022-12-29T04:30:55;4.43;;;1.48;;
35126;SDS011;21300;52.006;5.798;2022-12-29T04:33:20;5.95;;;1.60;;
35126;SDS011;21300;52.006;5.798;2022-12-29T04:35:46;5.88;;;1.40;;
35126;SDS011;21300;52.006;5.798;2022-12-29T04:38:12;5.38;;;1.55;;
35126;SDS011;21300;52.006;5.798;2022-12-29T04:40:39;4.75;;;1.00;;
35126;SDS011;21300;52.006;5.798;2022-12-29T04:43:05;7.90;;;1.40;;
35126;SDS011;21300;52.006;5.798;2022-12-29T04:45:31;8.52;;;1.67;;
35126;SDS011;21300;52.006;5.798;2022-12-29T04:47:57;6.18;;;1.10;;
35126;SDS011;21300;52.006;5.798;2022-12-29T04:50:22;5.28;;;1.20;;
35126;SDS011;21300;52.006;5.798;2022-12-29T04:52:48;5.10;;;1.17;;
35126;SDS011;21300;52.006;5.798;2022-12-29T04:55:13;4.43;;;1.35;;
35126;SDS011;21300;52.006;5.798;2022-12-29T04:57:39;7.35;;;1.10;;
35126;SDS011;21300;52.006;5.798;2022-12-29T05:00:05;7.43;;;1.08;;
35126;SDS011;21300;52.006;5.798;2022-12-29T05:02:33;4.88;;;1.25;;
35126;SDS011;21300;52.006;5.798;2022-12-29T05:04:59;7.40;;;1.20;;
35126;SDS011;21300;52.006;5.798;2022-12-29T05:07:24;6.93;;;1.05;;
35126;SDS011;21300;52.006;5.798;2022-12-29T05:09:50;4.25;;;0.85;;
35126;SDS011;21300;52.006;5.798;2022-12-29T05:12:15;6.25;;;0.93;;
35126;SDS011;21300;52.006;5.798;2022-12-29T05:14:41;10.10;;;1.50;;
35126;SDS011;21300;52.006;5.798;2022-12-29T05:17:07;8.15;;;1.27;;
35126;SDS011;21300;52.006;5.798;2022-12-29T05:19:32;4.15;;;0.90;;
35126;SDS011;21300;52.006;5.798;2022-12-29T05:21:58;4.38;;;1.02;;
35126;SDS011;21300;52.006;5.798;2022-12-29T05:24:23;4.93;;;1.15;;
35126;SDS011;21300;52.006;5.798;2022-12-29T05:26:49;8.27;;;0.95;;
35126;SDS011;21300;52.006;5.798;2022-12-29T05:29:15;5.13;;;0.95;;
35126;SDS011;21300;52.006;5.798;2022-12-29T05:31:40;5.80;;;1.05;;
35126;SDS011;21300;52.006;5.798;2022-12-29T05:34:06;8.98;;;1.20;;
35126;SDS011;21300;52.006;5.798;2022-12-29T05:36:31;7.80;;;1.15;;
35126;SDS011;21300;52.006;5.798;2022-12-29T05:38:57;6.93;;;0.82;;
35126;SDS011;21300;52.006;5.798;2022-12-29T05:41:22;4.85;;;1.00;;
35126;SDS011;21300;52.006;5.798;2022-12-29T05:43:48;6.72;;;1.08;;
35126;SDS011;21300;52.006;5.798;2022-12-29T05:46:14;4.55;;;1.45;;
35126;SDS011;21300;52.006;5.798;2022-12-29T05:48:39;7.07;;;1.40;;
35126;SDS011;21300;52.006;5.798;2022-12-29T05:51:05;5.38;;;1.23;;
35126;SDS011;21300;52.006;5.798;2022-12-29T05:53:30;5.13;;;1.27;;
35126;SDS011;21300;52.006;5.798;2022-12-29T05:55:56;6.70;;;1.63;;
35126;SDS011;21300;52.006;5.798;2022-12-29T05:58:21;4.80;;;1.30;;
35126;SDS011;21300;52.006;5.798;2022-12-29T06:00:47;4.57;;;1.88;;
35126;SDS011;21300;52.006;5.798;2022-12-29T06:03:12;4.70;;;1.30;;
35126;SDS011;21300;52.006;5.798;2022-12-29T06:05:38;6.13;;;1.77;;
35126;SDS011;21300;52.006;5.798;2022-12-29T06:08:04;8.38;;;1.60;;
35126;SDS011;21300;52.006;5.798;2022-12-29T06:10:29;5.88;;;1.40;;
35126;SDS011;21300;52.006;5.798;2022-12-29T06:12:55;7.28;;;1.55;;
35126;SDS011;21300;52.006;5.798;2022-12-29T06:15:20;11.88;;;1.40;;
35126;SDS011;21300;52.006;5.798;2022-12-29T06:17:46;7.50;;;1.42;;
35126;SDS011;21300;52.006;5.798;2022-12-29T06:20:11;8.63;;;1.40;;
35126;SDS011;21300;52.006;5.798;2022-12-29T06:22:37;2.78;;;1.40;;
35126;SDS011;21300;52.006;5.798;2022-12-29T06:25:03;9.48;;;1.50;;
35126;SDS011;21300;52.006;5.798;2022-12-29T06:27:30;9.65;;;1.75;;
35126;SDS011;21300;52.006;5.798;2022-12-29T06:29:56;9.15;;;1.38;;
35126;SDS011;21300;52.006;5.798;2022-12-29T06:32:22;8.13;;;1.45;;
35126;SDS011;21300;52.006;5.798;2022-12-29T06:34:48;8.30;;;1.88;;
35126;SDS011;21300;52.006;5.798;2022-12-29T06:37:13;7.20;;;1.25;;
35126;SDS011;21300;52.006;5.798;2022-12-29T06:39:39;5.72;;;1.38;;
35126;SDS011;21300;52.006;5.798;2022-12-29T06:42:05;7.57;;;1.20;;
35126;SDS011;21300;52.006;5.798;2022-12-29T06:44:31;5.65;;;1.30;;
35126;SDS011;21300;52.006;5.798;2022-12-29T06:46:56;10.98;;;2.30;;
35126;SDS011;21300;52.006;5.798;2022-12-29T06:49:22;9.73;;;1.38;;
35126;SDS011;21300;52.006;5.798;2022-12-29T06:51:48;7.35;;;1.45;;
35126;SDS011;21300;52.006;5.798;2022-12-29T06:54:13;9.65;;;1.48;;
35126;SDS011;21300;52.006;5.798;2022-12-29T06:56:39;6.03;;;1.38;;
35126;SDS011;21300;52.006;5.798;2022-12-29T06:59:04;6.40;;;1.08;;
35126;SDS011;21300;52.006;5.798;2022-12-29T07:01:30;10.10;;;1.17;;
35126;SDS011;21300;52.006;5.798;2022-12-29T07:03:56;5.93;;;1.27;;
35126;SDS011;21300;52.006;5.798;2022-12-29T07:06:22;6.65;;;1.10;;
35126;SDS011;21300;52.006;5.798;2022-12-29T07:08:48;8.38;;;1.33;;
35126;SDS011;21300;52.006;5.798;2022-12-29T07:11:14;11.23;;;1.50;;
35126;SDS011;21300;52.006;5.798;2022-12-29T07:13:39;8.98;;;1.20;;
35126;SDS011;21300;52.006;5.798;2022-12-29T07:16:08;8.95;;;1.60;;
35126;SDS011;21300;52.006;5.798;2022-12-29T07:18:34;4.38;;;0.90;;
35126;SDS011;21300;52.006;5.798;2022-12-29T07:21:01;10.27;;;1.25;;
35126;SDS011;21300;52.006;5.798;2022-12-29T07:23:27;10.80;;;1.10;;
35126;SDS011;21300;52.006;5.798;2022-12-29T07:26:02;5.05;;;1.00;;
35126;SDS011;21300;52.006;5.798;2022-12-29T07:28:30;7.00;;;1.10;;
35126;SDS011;21300;52.006;5.798;2022-12-29T07:30:57;6.25;;;1.38;;
35126;SDS011;21300;52.006;5.798;2022-12-29T07:33:23;4.97;;;0.93;;
35126;SDS011;21300;52.006;5.798;2022-12-29T07:35:49;8.52;;;1.30;;
35126;SDS011;21300;52.006;5.798;2022-12-29T07:38:15;7.68;;;1.40;;
35126;SDS011;21300;52.006;5.798;2022-12-29T07:40:42;7.55;;;1.00;;
35126;SDS011;21300;52.006;5.798;2022-12-29T07:43:07;4.72;;;1.08;;
35126;SDS011;21300;52.006;5.798;2022-12-29T07:45:33;5.65;;;1.30;;
35126;SDS011;21300;52.006;5.798;2022-12-29T07:47:59;7.80;;;1.23;;
35126;SDS011;21300;52.006;5.798;2022-12-29T07:50:24;8.50;;;1.33;;
35126;SDS011;21300;52.006;5.798;2022-12-29T07:52:50;5.97;;;1.20;;
35126;SDS011;21300;52.006;5.798;2022-12-29T07:55:15;10.10;;;1.67;;
35126;SDS011;21300;52.006;5.798;2022-12-29T07:57:41;8.88;;;1.17;;
35126;SDS011;21300;52.006;5.798;2022-12-29T08:00:07;8.70;;;1.42;;
35126;SDS011;21300;52.006;5.798;2022-12-29T08:02:34;6.70;;;1.33;;
35126;SDS011;21300;52.006;5.798;2022-12-29T08:05:00;7.35;;;1.50;;
35126;SDS011;21300;52.006;5.798;2022-12-29T08:07:26;8.55;;;1.45;;
35126;SDS011;21300;52.006;5.798;2022-12-29T08:09:51;5.90;;;1.38;;
35126;SDS011;21300;52.006;5.798;2022-12-29T08:12:17;11.00;;;1.67;;
35126;SDS011;21300;52.006;5.798;2022-12-29T08:14:43;7.57;;;1.38;;
35126;SDS011;21300;52.006;5.798;2022-12-29T08:17:08;13.10;;;1.58;;
35126;SDS011;21300;52.006;5.798;2022-12-29T08:19:35;9.18;;;1.15;;
35126;SDS011;21300;52.006;5.798;2022-12-29T08:22:00;11.38;;;1.77;;
35126;SDS011;21300;52.006;5.798;2022-12-29T08:24:26;10.52;;;1.55;;
35126;SDS011;21300;52.006;5.798;2022-12-29T08:26:52;6.85;;;1.48;;
35126;SDS011;21300;52.006;5.798;2022-12-29T08:29:17;10.40;;;1.55;;
35126;SDS011;21300;52.006;5.798;2022-12-29T08:31:43;11.07;;;1.13;;
35126;SDS011;21300;52.006;5.798;2022-12-29T08:34:27;7.80;;;1.27;;
35126;SDS011;21300;52.006;5.798;2022-12-29T08:36:53;9.25;;;1.52;;
35126;SDS011;21300;52.006;5.798;2022-12-29T08:39:18;14.43;;;1.52;;
35126;SDS011;21300;52.006;5.798;2022-12-29T08:41:44;14.25;;;1.70;;
35126;SDS011;21300;52.006;5.798;2022-12-29T08:44:10;11.23;;;1.83;;
35126;SDS011;21300;52.006;5.798;2022-12-29T08:46:35;10.32;;;1.92;;
35126;SDS011;21300;52.006;5.798;2022-12-29T08:49:01;7.95;;;1.35;;
35126;SDS011;21300;52.006;5.798;2022-12-29T08:51:26;8.52;;;1.60;;
35126;SDS011;21300;52.006;5.798;2022-12-29T08:53:52;10.55;;;1.30;;
35126;SDS011;21300;52.006;5.798;2022-12-29T08:56:18;6.82;;;1.27;;
35126;SDS011;21300;52.006;5.798;2022-12-29T08:58:43;8.77;;;1.38;;
35126;SDS011;21300;52.006;5.798;2022-12-29T09:01:09;6.05;;;1.20;;
35126;SDS011;21300;52.006;5.798;2022-12-29T09:03:35;10.10;;;1.60;;
35126;SDS011;21300;52.006;5.798;2022-12-29T09:06:00;9.05;;;1.70;;
35126;SDS011;21300;52.006;5.798;2022-12-29T09:08:26;11.10;;;1.48;;
35126;SDS011;21300;52.006;5.798;2022-12-29T09:10:52;8.52;;;1.50;;
35126;SDS011;21300;52.006;5.798;2022-12-29T09:13:18;9.98;;;1.55;;
35126;SDS011;21300;52.006;5.798;2022-12-29T09:15:43;6.22;;;1.52;;
35126;SDS011;21300;52.006;5.798;2022-12-29T09:18:09;8.60;;;1.63;;
35126;SDS011;21300;52.006;5.798;2022-12-29T09:20:35;10.32;;;2.38;;
35126;SDS011;21300;52.006;5.798;2022-12-29T09:23:02;8.57;;;1.75;;
35126;SDS011;21300;52.006;5.798;2022-12-29T09:25:28;10.73;;;1.65;;
35126;SDS011;21300;52.006;5.798;2022-12-29T09:27:54;13.18;;;1.95;;
35126;SDS011;21300;52.006;5.798;2022-12-29T09:30:20;9.25;;;1.60;;
35126;SDS011;21300;52.006;5.798;2022-12-29T09:32:48;11.75;;;2.10;;
35126;SDS011;21300;52.006;5.798;2022-12-29T09:35:14;15.70;;;1.60;;
35126;SDS011;21300;52.006;5.798;2022-12-29T09:37:40;13.77;;;1.70;;
35126;SDS011;21300;52.006;5.798;2022-12-29T09:40:06;10.50;;;1.92;;
35126;SDS011;21300;52.006;5.798;2022-12-29T09:42:44;11.13;;;1.58;;
35126;SDS011;21300;52.006;5.798;2022-12-29T09:45:24;13.20;;;1.88;;
35126;SDS011;21300;52.006;5.798;2022-12-29T09:48:04;15.05;;;1.83;;
35126;SDS011;21300;52.006;5.798;2022-12-29T09:50:38;15.32;;;1.70;;
35126;SDS011;21300;52.006;5.798;2022-12-29T09:53:11;9.13;;;1.50;;
35126;SDS011;21300;52.006;5.798;2022-12-29T09:55:47;6.82;;;1.33;;
35126;SDS011;21300;52.006;5.798;2022-12-29T09:58:22;11.02;;;1.45;;
35126;SDS011;21300;52.006;5.798;2022-12-29T10:00:56;14.30;;;2.10;;
35126;SDS011;21300;52.006;5.798;2022-12-29T10:03:46;12.35;;;2.10;;
35126;SDS011;21300;52.006;5.798;2022-12-29T10:06:18;15.60;;;2.28;;
35126;SDS011;21300;52.006;5.798;2022-12-29T10:08:57;5.68;;;1.63;;
35126;SDS011;21300;52.006;5.798;2022-12-29T10:14:40;9.02;;;1.55;;
35126;SDS011;21300;52.006;5.798;2022-12-29T10:17:30;8.27;;;1.30;;
35126;SDS011;21300;52.006;5.798;2022-12-29T10:25:38;8.85;;;2.00;;
35126;SDS011;21300;52.006;5.798;2022-12-29T10:28:09;9.38;;;1.88;;
35126;SDS011;21300;52.006;5.798;2022-12-29T10:30:43;10.20;;;1.75;;
35126;SDS011;21300;52.006;5.798;2022-12-29T10:33:11;11.43;;;2.10;;
35126;SDS011;21300;52.006;5.798;2022-12-29T10:35:43;6.45;;;1.50;;
35126;SDS011;21300;52.006;5.798;2022-12-29T10:38:33;11.63;;;2.10;;
35126;SDS011;21300;52.006;5.798;2022-12-29T10:41:20;7.95;;;1.65;;
35126;SDS011;21300;52.006;5.798;2022-12-29T10:43:53;12.80;;;1.98;;
35126;SDS011;21300;52.006;5.798;2022-12-29T10:46:23;12.43;;;2.15;;
35126;SDS011;21300;52.006;5.798;2022-12-29T10:48:55;6.38;;;1.73;;
35126;SDS011;21300;52.006;5.798;2022-12-29T10:51:22;6.43;;;1.35;;
35126;SDS011;21300;52.006;5.798;2022-12-29T10:53:51;8.15;;;2.17;;
35126;SDS011;21300;52.006;5.798;2022-12-29T10:56:29;10.25;;;2.30;;
35126;SDS011;21300;52.006;5.798;2022-12-29T10:59:00;9.90;;;2.20;;
35126;SDS011;21300;52.006;5.798;2022-12-29T11:01:37;5.35;;;1.63;;
35126;SDS011;21300;52.006;5.798;2022-12-29T11:04:18;10.02;;;2.40;;
35126;SDS011;21300;52.006;5.798;2022-12-29T11:06:57;10.55;;;2.20;;
35126;SDS011;21300;52.006;5.798;2022-12-29T11:09:31;7.43;;;2.20;;
35126;SDS011;21300;52.006;5.798;2022-12-29T11:11:59;11.63;;;2.80;;
35126;SDS011;21300;52.006;5.798;2022-12-29T11:14:29;11.65;;;3.08;;
35126;SDS011;21300;52.006;5.798;2022-12-29T11:16:57;10.63;;;2.75;;
35126;SDS011;21300;52.006;5.798;2022-12-29T11:19:28;11.13;;;2.72;;
35126;SDS011;21300;52.006;5.798;2022-12-29T11:22:14;12.32;;;2.80;;
35126;SDS011;21300;52.006;5.798;2022-12-29T11:24:45;13.68;;;3.47;;
35126;SDS011;21300;52.006;5.798;2022-12-29T11:27:17;10.90;;;3.90;;
35126;SDS011;21300;52.006;5.798;2022-12-29T11:29:50;11.90;;;3.65;;
35126;SDS011;21300;52.006;5.798;2022-12-29T11:34:46;12.80;;;4.00;;
35126;SDS011;21300;52.006;5.798;2022-12-29T11:37:13;16.90;;;4.78;;
35126;SDS011;21300;52.006;5.798;2022-12-29T11:42:17;20.33;;;5.10;;
35126;SDS011;21300;52.006;5.798;2022-12-29T11:44:47;18.75;;;5.20;;
35126;SDS011;21300;52.006;5.798;2022-12-29T11:47:35;13.93;;;4.72;;
35126;SDS011;21300;52.006;5.798;2022-12-29T11:50:03;17.83;;;5.07;;
35126;SDS011;21300;52.006;5.798;2022-12-29T11:52:32;24.48;;;5.70;;
35126;SDS011;21300;52.006;5.798;2022-12-29T11:55:00;18.35;;;4.70;;
35126;SDS011;21300;52.006;5.798;2022-12-29T11:57:27;17.27;;;4.60;;
35126;SDS011;21300;52.006;5.798;2022-12-29T11:59:56;18.92;;;5.20;;
35126;SDS011;21300;52.006;5.798;2022-12-29T12:05:23;16.92;;;4.22;;
35126;SDS011;21300;52.006;5.798;2022-12-29T12:08:22;17.10;;;5.43;;
35126;SDS011;21300;52.006;5.798;2022-12-29T12:10:57;22.10;;;3.35;;
35126;SDS011;21300;52.006;5.798;2022-12-29T12:23:57;19.80;;;4.05;;
35126;SDS011;21300;52.006;5.798;2022-12-29T12:26:36;17.30;;;4.50;;
35126;SDS011;21300;52.006;5.798;2022-12-29T12:29:12;17.48;;;4.15;;
35126;SDS011;21300;52.006;5.798;2022-12-29T12:31:45;19.02;;;4.47;;
35126;SDS011;21300;52.006;5.798;2022-12-29T12:34:20;19.05;;;4.28;;
35126;SDS011;21300;52.006;5.798;2022-12-29T12:36:58;16.73;;;4.20;;
35126;SDS011;21300;52.006;5.798;2022-12-29T12:39:26;26.10;;;6.40;;
35126;SDS011;21300;52.006;5.798;2022-12-29T12:42:06;17.20;;;4.22;;
35126;SDS011;21300;52.006;5.798;2022-12-29T12:47:47;16.85;;;4.25;;
35126;SDS011;21300;52.006;5.798;2022-12-29T12:59:24;15.85;;;4.63;;
35126;SDS011;21300;52.006;5.798;2022-12-29T13:04:53;12.23;;;3.70;;
35126;SDS011;21300;52.006;5.798;2022-12-29T13:13:50;20.60;;;4.70;;
35126;SDS011;21300;52.006;5.798;2022-12-29T13:16:17;12.75;;;4.45;;
35126;SDS011;21300;52.006;5.798;2022-12-29T13:18:56;12.10;;;3.35;;
35126;SDS011;21300;52.006;5.798;2022-12-29T13:25:06;18.05;;;4.78;;
35126;SDS011;21300;52.006;5.798;2022-12-29T13:30:10;15.70;;;3.78;;
35126;SDS011;21300;52.006;5.798;2022-12-29T13:32:49;13.55;;;4.18;;
35126;SDS011;21300;52.006;5.798;2022-12-29T13:35:38;19.80;;;4.32;;
35126;SDS011;21300;52.006;5.798;2022-12-29T13:40:47;20.02;;;4.40;;
35126;SDS011;21300;52.006;5.798;2022-12-29T13:43:17;12.23;;;4.13;;
35126;SDS011;21300;52.006;5.798;2022-12-29T13:45:46;16.92;;;4.18;;
35126;SDS011;21300;52.006;5.798;2022-12-29T13:48:26;18.02;;;3.58;;
35126;SDS011;21300;52.006;5.798;2022-12-29T13:51:08;16.92;;;4.07;;
35126;SDS011;21300;52.006;5.798;2022-12-29T13:53:37;12.88;;;3.50;;
35126;SDS011;21300;52.006;5.798;2022-12-29T13:56:18;20.95;;;3.60;;
35126;SDS011;21300;52.006;5.798;2022-12-29T14:02:01;12.20;;;3.30;;
35126;SDS011;21300;52.006;5.798;2022-12-29T14:04:55;24.05;;;3.95;;
35126;SDS011;21300;52.006;5.798;2022-12-29T14:07:25;16.42;;;3.45;;
35126;SDS011;21300;52.006;5.798;2022-12-29T14:09:52;18.73;;;3.53;;
35126;SDS011;21300;52.006;5.798;2022-12-29T14:14:51;11.55;;;2.97;;
35126;SDS011;21300;52.006;5.798;2022-12-29T14:17:19;12.10;;;2.75;;
35126;SDS011;21300;52.006;5.798;2022-12-29T14:19:46;10.25;;;2.67;;
35126;SDS011;21300;52.006;5.798;2022-12-29T14:22:22;11.45;;;3.08;;
35126;SDS011;21300;52.006;5.798;2022-12-29T14:24:50;8.48;;;2.42;;
35126;SDS011;21300;52.006;5.798;2022-12-29T14:29:41;8.27;;;2.38;;
35126;SDS011;21300;52.006;5.798;2022-12-29T14:34:49;6.45;;;1.88;;
35126;SDS011;21300;52.006;5.798;2022-12-29T14:40:06;6.50;;;1.90;;
35126;SDS011;21300;52.006;5.798;2022-12-29T14:42:43;5.57;;;2.38;;
35126;SDS011;21300;52.006;5.798;2022-12-29T14:47:40;5.25;;;1.70;;
35126;SDS011;21300;52.006;5.798;2022-12-29T14:57:43;11.75;;;4.97;;
35126;SDS011;21300;52.006;5.798;2022-12-29T15:00:22;13.48;;;3.65;;
35126;SDS011;21300;52.006;5.798;2022-12-29T15:05:41;15.75;;;8.15;;
35126;SDS011;21300;52.006;5.798;2022-12-29T15:08:17;8.90;;;3.17;;
35126;SDS011;21300;52.006;5.798;2022-12-29T15:10:50;4.82;;;2.17;;
35126;SDS011;21300;52.006;5.798;2022-12-29T15:13:35;9.43;;;2.78;;
35126;SDS011;21300;52.006;5.798;2022-12-29T15:16:04;9.90;;;2.03;;
35126;SDS011;21300;52.006;5.798;2022-12-29T15:18:44;11.80;;;2.80;;
35126;SDS011;21300;52.006;5.798;2022-12-29T15:21:11;8.07;;;2.35;;
35126;SDS011;21300;52.006;5.798;2022-12-29T15:23:39;8.45;;;2.45;;
35126;SDS011;21300;52.006;5.798;2022-12-29T15:26:07;6.07;;;1.80;;
35126;SDS011;21300;52.006;5.798;2022-12-29T15:28:37;7.60;;;2.28;;
35126;SDS011;21300;52.006;5.798;2022-12-29T15:31:15;7.03;;;2.35;;
35126;SDS011;21300;52.006;5.798;2022-12-29T15:33:41;9.20;;;2.58;;
35126;SDS011;21300;52.006;5.798;2022-12-29T15:36:23;10.25;;;2.47;;
35126;SDS011;21300;52.006;5.798;2022-12-29T15:38:50;8.10;;;2.50;;
35126;SDS011;21300;52.006;5.798;2022-12-29T15:41:21;10.27;;;2.65;;
35126;SDS011;21300;52.006;5.798;2022-12-29T15:44:25;11.88;;;2.83;;
35126;SDS011;21300;52.006;5.798;2022-12-29T15:46:56;12.18;;;2.55;;
35126;SDS011;21300;52.006;5.798;2022-12-29T15:49:22;8.75;;;2.30;;
35126;SDS011;21300;52.006;5.798;2022-12-29T15:51:49;10.23;;;1.85;;
35126;SDS011;21300;52.006;5.798;2022-12-29T15:54:18;5.95;;;2.15;;
35126;SDS011;21300;52.006;5.798;2022-12-29T15:56:46;7.53;;;2.28;;
35126;SDS011;21300;52.006;5.798;2022-12-29T15:59:26;8.90;;;2.20;;
35126;SDS011;21300;52.006;5.798;2022-12-29T16:01:57;9.25;;;1.92;;
35126;SDS011;21300;52.006;5.798;2022-12-29T16:04:27;8.88;;;2.13;;
35126;SDS011;21300;52.006;5.798;2022-12-29T16:07:00;7.47;;;2.13;;
35126;SDS011;21300;52.006;5.798;2022-12-29T16:09:34;10.38;;;2.55;;
35126;SDS011;21300;52.006;5.798;2022-12-29T16:12:06;7.00;;;1.95;;
35126;SDS011;21300;52.006;5.798;2022-12-29T16:14:45;10.75;;;2.38;;
35126;SDS011;21300;52.006;5.798;2022-12-29T16:17:15;8.10;;;1.95;;
35126;SDS011;21300;52.006;5.798;2022-12-29T16:19:48;10.65;;;2.40;;
35126;SDS011;21300;52.006;5.798;2022-12-29T16:22:27;5.85;;;1.38;;
35126;SDS011;21300;52.006;5.798;2022-12-29T16:24:57;11.93;;;2.13;;
35126;SDS011;21300;52.006;5.798;2022-12-29T16:27:36;7.78;;;1.50;;
35126;SDS011;21300;52.006;5.798;2022-12-29T16:30:06;9.15;;;2.38;;
35126;SDS011;21300;52.006;5.798;2022-12-29T16:32:45;9.48;;;2.10;;
35126;SDS011;21300;52.006;5.798;2022-12-29T16:35:28;7.53;;;2.17;;
35126;SDS011;21300;52.006;5.798;2022-12-29T16:38:21;9.45;;;2.08;;
35126;SDS011;21300;52.006;5.798;2022-12-29T16:40:51;9.43;;;2.10;;
35126;SDS011;21300;52.006;5.798;2022-12-29T16:43:25;6.90;;;1.60;;
35126;SDS011;21300;52.006;5.798;2022-12-29T16:48:25;6.93;;;1.83;;
35126;SDS011;21300;52.006;5.798;2022-12-29T16:51:00;12.30;;;2.28;;
35126;SDS011;21300;52.006;5.798;2022-12-29T16:53:31;8.50;;;1.50;;
35126;SDS011;21300;52.006;5.798;2022-12-29T16:56:09;10.00;;;1.65;;
35126;SDS011;21300;52.006;5.798;2022-12-29T16:58:40;6.28;;;1.30;;
35126;SDS011;21300;52.006;5.798;2022-12-29T17:01:06;5.88;;;1.58;;